Time;durP1;ratioP1;P1;durP2;ratioP2;P2;SDS_P1;SDS_P2;PMS_P1;PMS_P2;Temp;Humidity;BMP_temperature;BMP_pressure;BME280_temperature;BME280_humidity;BME280_pressure;Samples;Min_cycle;Max_cycle;Signal;HPM_P1;HPM_P2
2022/02/05 00:00:33;;;;;;;93.65;47.05;;;10.30;99.90;;;;;;4887343;29;20059;-78
2022/02/05 00:05:42;;;;;;;82.47;43.55;;;10.30;99.90;;;;;;4897173;29;20350;-78
2022/02/05 00:38:26;;;;;;;87.65;45.20;;;10.30;99.90;;;;;;4900038;29;20438;-82
2022/02/05 00:40:57;;;;;;;82.38;41.92;;;10.30;99.90;;;;;;4883483;29;20527;-82
2022/02/05 00:43:23;;;;;;;83.60;44.78;;;10.30;99.90;;;;;;4899758;29;20177;-81
2022/02/05 00:45:53;;;;;;;83.43;44.42;;;10.30;99.90;;;;;;4899685;29;20113;-83
2022/02/05 00:48:20;;;;;;;78.03;43.05;;;10.20;99.90;;;;;;4900051;29;20285;-82
2022/02/05 00:50:54;;;;;;;79.82;45.63;;;10.20;99.90;;;;;;4879512;29;20045;-84
2022/02/05 00:53:33;;;;;;;95.05;48.17;;;10.20;99.90;;;;;;4881497;29;20017;-81
2022/02/05 00:58:37;;;;;;;101.93;49.13;;;10.10;99.90;;;;;;4882044;29;20025;-81
2022/02/05 01:01:04;;;;;;;92.35;49.28;;;10.10;99.90;;;;;;4881757;29;20048;-85
2022/02/05 01:03:30;;;;;;;95.40;50.35;;;10.10;99.90;;;;;;4881735;29;20025;-79
2022/02/05 01:05:56;;;;;;;97.38;51.05;;;10.10;99.90;;;;;;4881827;29;20033;-85
2022/02/05 01:08:24;;;;;;;97.93;53.65;;;10.00;99.90;;;;;;4881904;29;20025;-84
2022/02/05 01:10:49;;;;;;;100.35;56.65;;;9.90;99.90;;;;;;4881943;29;20058;-85
2022/02/05 01:13:15;;;;;;;102.70;54.70;;;9.90;99.90;;;;;;4881666;29;20029;-81
2022/02/05 01:15:53;;;;;;;110.53;56.65;;;9.90;99.90;;;;;;4881220;29;20028;-86
2022/02/05 01:18:20;;;;;;;102.53;56.67;;;9.90;99.90;;;;;;4881672;29;20026;-85
2022/02/05 01:23:32;;;;;;;90.80;50.22;;;9.90;99.90;;;;;;4881471;29;20116;-86
2022/02/05 01:26:08;;;;;;;98.85;46.03;;;9.90;99.90;;;;;;4881097;29;20130;-85
2022/02/05 01:28:35;;;;;;;85.75;44.13;;;10.00;99.90;;;;;;4881284;29;20040;-86
2022/02/05 01:31:00;;;;;;;81.05;42.25;;;10.00;99.90;;;;;;4880401;29;20025;-81
2022/02/05 01:34:16;;;;;;;90.80;46.28;;;10.00;99.90;;;;;;4880848;29;20470;-81
2022/02/05 01:55:32;;;;;;;100.97;48.65;;;10.10;99.90;;;;;;4880436;29;20032;-79
2022/02/05 01:58:15;;;;;;;81.35;44.58;;;10.10;99.90;;;;;;4879576;29;20029;-79
2022/02/05 02:14:37;;;;;;;96.50;52.50;;;10.00;99.90;;;;;;4880254;29;20124;-79
2022/02/05 02:25:48;;;;;;;97.00;53.92;;;10.00;99.90;;;;;;4880459;29;20154;-79
2022/02/05 02:32:29;;;;;;;113.47;56.05;;;10.00;99.90;;;;;;4880811;29;20107;-80
2022/02/05 02:35:01;;;;;;;110.72;52.38;;;10.00;99.90;;;;;;4879156;29;20033;-78
2022/02/05 02:37:49;;;;;;;104.20;48.95;;;10.10;99.90;;;;;;4877574;29;20077;-78
2022/02/05 02:42:54;;;;;;;111.57;52.03;;;10.10;99.90;;;;;;4879937;29;20032;-82
2022/02/05 02:45:20;;;;;;;108.82;52.75;;;10.10;99.90;;;;;;4879773;29;20029;-78
2022/02/05 02:47:45;;;;;;;112.22;48.88;;;10.00;99.90;;;;;;4878879;29;20394;-80
2022/02/05 02:58:20;;;;;;;140.10;52.42;;;9.90;99.90;;;;;;4879511;29;20107;-80
2022/02/05 03:00:48;;;;;;;127.97;52.42;;;9.90;99.90;;;;;;4879754;29;20044;-80
2022/02/05 03:03:13;;;;;;;115.15;50.17;;;9.90;99.90;;;;;;4879704;29;20052;-80
2022/02/05 03:05:39;;;;;;;112.57;49.72;;;9.90;99.90;;;;;;4879631;29;20068;-80
2022/02/05 03:08:06;;;;;;;106.50;46.78;;;9.90;99.90;;;;;;4879545;29;20474;-81
2022/02/05 03:10:31;;;;;;;101.35;48.80;;;9.90;99.90;;;;;;4862991;29;20033;-79
2022/02/05 03:12:57;;;;;;;122.97;50.97;;;9.90;99.90;;;;;;4879762;29;20394;-81
2022/02/05 03:15:23;;;;;;;113.43;51.95;;;9.90;99.90;;;;;;4879531;29;20041;-85
2022/02/05 03:17:55;;;;;;;108.35;50.60;;;10.00;99.90;;;;;;4879125;29;20068;-83
2022/02/05 03:20:22;;;;;;;106.88;51.35;;;10.00;99.90;;;;;;4879004;29;20033;-83
2022/02/05 03:22:47;;;;;;;106.95;48.75;;;10.00;99.90;;;;;;4879453;29;20025;-81
2022/02/05 03:25:13;;;;;;;95.70;47.92;;;10.00;99.90;;;;;;4879579;29;20025;-81
2022/02/05 03:27:39;;;;;;;102.20;49.58;;;10.00;99.90;;;;;;4879359;29;20029;-85
2022/02/05 03:30:06;;;;;;;112.22;50.25;;;10.00;99.90;;;;;;4879147;29;20025;-81
2022/02/05 03:32:31;;;;;;;103.85;49.30;;;10.00;99.90;;;;;;4879274;29;20081;-82
2022/02/05 03:34:57;;;;;;;102.90;50.08;;;10.00;99.90;;;;;;4879286;29;20029;-81
2022/02/05 03:37:23;;;;;;;107.90;50.00;;;10.00;99.90;;;;;;4877906;29;20108;-82
2022/02/05 03:39:48;;;;;;;109.18;49.47;;;10.00;99.90;;;;;;4879276;29;20478;-81
2022/02/05 03:42:14;;;;;;;94.88;47.95;;;10.00;99.90;;;;;;4878837;29;20033;-81
2022/02/05 03:44:40;;;;;;;96.70;47.95;;;10.00;99.90;;;;;;4878819;29;20490;-80
2022/02/05 03:47:06;;;;;;;100.05;47.38;;;10.00;99.90;;;;;;4879194;29;20389;-79
2022/02/05 03:49:32;;;;;;;113.07;49.58;;;10.00;99.90;;;;;;4878992;29;20385;-82
2022/02/05 03:51:57;;;;;;;101.40;47.33;;;10.00;99.90;;;;;;4878937;29;20120;-85
2022/02/05 03:54:25;;;;;;;101.38;48.22;;;10.00;99.90;;;;;;4878476;29;20406;-82
2022/02/05 03:56:51;;;;;;;115.30;50.53;;;10.00;99.90;;;;;;4879311;29;20033;-80
2022/02/05 03:59:17;;;;;;;113.88;50.10;;;9.90;99.90;;;;;;4879060;29;20104;-80
2022/02/05 04:01:43;;;;;;;113.32;50.85;;;9.90;99.90;;;;;;4878809;29;20108;-81
2022/02/05 04:04:09;;;;;;;111.57;50.80;;;9.90;99.90;;;;;;4878879;29;20534;-80
2022/02/05 04:06:35;;;;;;;114.43;51.17;;;9.90;99.90;;;;;;4879068;29;20033;-82
2022/02/05 04:09:06;;;;;;;108.78;50.08;;;9.90;99.90;;;;;;4878713;29;20386;-82
2022/02/05 04:17:00;;;;;;;106.05;48.97;;;9.90;99.90;;;;;;4878628;29;20112;-81
2022/02/05 04:19:25;;;;;;;89.43;46.75;;;9.90;99.90;;;;;;4862396;29;20057;-79
2022/02/05 04:21:52;;;;;;;99.97;48.97;;;9.90;99.90;;;;;;4878705;29;20040;-78
2022/02/05 04:24:17;;;;;;;104.20;49.97;;;9.90;99.90;;;;;;4878084;29;20017;-79
2022/02/05 04:26:43;;;;;;;103.18;52.42;;;9.90;99.90;;;;;;4877154;29;20097;-80
2022/02/05 04:29:10;;;;;;;113.57;51.35;;;9.90;99.90;;;;;;4878395;29;20040;-79
2022/02/05 04:31:37;;;;;;;108.07;50.97;;;9.90;99.90;;;;;;4878575;29;20021;-80
2022/02/05 04:34:04;;;;;;;104.82;48.55;;;9.90;99.90;;;;;;4878907;29;20025;-82
2022/02/05 04:36:31;;;;;;;113.15;49.35;;;9.90;99.90;;;;;;4878798;29;20028;-80
2022/02/05 04:39:00;;;;;;;108.53;49.80;;;9.90;99.90;;;;;;4862223;29;20033;-81
2022/02/05 04:41:41;;;;;;;107.00;53.17;;;9.90;99.90;;;;;;4878402;29;20033;-82
2022/02/05 04:48:04;;;;;;;98.97;48.15;;;10.00;99.90;;;;;;4878235;29;20064;-82
2022/02/05 04:57:49;;;;;;;105.35;46.95;;;10.00;99.90;;;;;;4878362;29;20032;-81
2022/02/05 05:00:26;;;;;;;106.40;45.40;;;10.00;99.90;;;;;;4878034;29;20121;-83
2022/02/05 05:03:04;;;;;;;91.60;44.95;;;10.10;99.90;;;;;;4876497;29;20089;-85
2022/02/05 05:05:48;;;;;;;94.68;44.75;;;10.00;99.90;;;;;;4878447;29;20029;-82
2022/02/05 05:21:22;;;;;;;105.10;48.58;;;10.10;99.90;;;;;;4880870;29;20093;-84
2022/02/05 05:23:48;;;;;;;88.55;45.50;;;10.10;99.90;;;;;;4881529;29;20435;-82
2022/02/05 05:26:13;;;;;;;99.78;47.67;;;10.10;99.90;;;;;;4881533;29;20469;-84
2022/02/05 05:28:39;;;;;;;89.90;46.17;;;10.10;99.90;;;;;;4881339;29;20582;-83
2022/02/05 05:31:04;;;;;;;108.95;48.90;;;10.10;99.90;;;;;;4881359;29;20112;-81
2022/02/05 05:33:30;;;;;;;119.50;51.15;;;10.10;99.90;;;;;;4881511;29;20084;-81
2022/02/05 05:35:56;;;;;;;115.82;48.55;;;10.10;99.90;;;;;;4881291;29;20084;-84
2022/02/05 05:38:21;;;;;;;118.80;52.00;;;10.10;99.90;;;;;;4880614;29;20021;-80
2022/02/05 05:40:47;;;;;;;115.43;52.10;;;10.10;99.90;;;;;;4880890;29;20581;-81
2022/02/05 05:43:36;;;;;;;102.13;51.65;;;10.10;99.90;;;;;;4881364;29;20036;-79
2022/02/05 05:46:16;;;;;;;111.43;49.83;;;10.10;99.90;;;;;;4881483;29;20029;-81
2022/02/05 05:51:10;;;;;;;115.43;50.10;;;10.10;99.90;;;;;;4885369;29;20052;-81
2022/02/05 05:53:36;;;;;;;92.93;46.38;;;10.10;99.90;;;;;;4899445;29;20421;-82
2022/02/05 05:56:03;;;;;;;92.82;44.80;;;10.10;99.90;;;;;;4898423;29;20505;-81
2022/02/05 05:58:29;;;;;;;97.70;45.40;;;10.00;99.90;;;;;;4899350;29;20596;-80
2022/02/05 06:00:55;;;;;;;95.38;44.10;;;10.00;99.90;;;;;;4882086;29;20049;-81
2022/02/05 06:03:22;;;;;;;94.03;44.47;;;10.00;99.90;;;;;;4899203;29;20389;-84
2022/02/05 06:05:48;;;;;;;91.03;42.55;;;10.00;99.90;;;;;;4882146;29;20032;-82
2022/02/05 06:08:15;;;;;;;78.75;41.47;;;10.00;99.90;;;;;;4899228;29;20052;-80
2022/02/05 06:10:42;;;;;;;81.15;40.20;;;10.00;99.90;;;;;;4899052;29;20488;-84
2022/02/05 06:13:09;;;;;;;88.35;40.83;;;9.90;99.90;;;;;;4899486;29;20021;-82
2022/02/05 06:15:36;;;;;;;77.45;40.53;;;9.90;99.90;;;;;;4899375;29;20107;-81
2022/02/05 06:18:02;;;;;;;80.63;38.83;;;9.90;99.90;;;;;;4898253;29;20021;-84
2022/02/05 06:20:28;;;;;;;81.07;37.92;;;9.90;99.90;;;;;;4899288;29;20123;-84
2022/02/05 06:22:53;;;;;;;92.55;39.80;;;9.90;99.90;;;;;;4899293;29;20035;-82
2022/02/05 06:25:19;;;;;;;103.03;43.70;;;9.90;99.90;;;;;;4899144;29;20039;-82
2022/02/05 06:27:45;;;;;;;91.63;41.80;;;10.00;99.90;;;;;;4899011;29;20025;-85
2022/02/05 06:30:11;;;;;;;80.88;39.35;;;10.00;99.90;;;;;;4898729;29;20059;-81
2022/02/05 06:32:37;;;;;;;82.60;40.88;;;10.00;99.90;;;;;;4898951;29;20029;-82
2022/02/05 06:35:03;;;;;;;85.22;41.78;;;10.00;99.90;;;;;;4899146;29;20055;-81
2022/02/05 06:37:28;;;;;;;74.70;38.90;;;10.00;99.90;;;;;;4898969;29;20025;-81
2022/02/05 06:39:54;;;;;;;82.55;37.85;;;9.90;99.90;;;;;;4898913;29;20386;-85
2022/02/05 06:42:20;;;;;;;88.78;38.83;;;10.00;99.90;;;;;;4881418;29;20457;-84
2022/02/05 06:44:45;;;;;;;88.75;38.05;;;10.00;99.90;;;;;;4898816;29;20076;-80
2022/02/05 06:47:11;;;;;;;94.30;40.45;;;10.00;99.90;;;;;;4898810;29;20474;-81
2022/02/05 06:49:37;;;;;;;86.80;40.13;;;10.00;99.90;;;;;;4898140;29;20040;-80
2022/02/05 06:52:02;;;;;;;85.60;39.15;;;10.00;99.90;;;;;;4886990;29;20045;-81
2022/02/05 06:54:29;;;;;;;84.78;38.45;;;10.00;99.90;;;;;;4880316;29;20105;-80
2022/02/05 06:56:55;;;;;;;81.30;38.25;;;10.00;99.90;;;;;;4880020;29;20037;-81
2022/02/05 06:59:21;;;;;;;69.40;38.58;;;10.00;99.90;;;;;;4879687;29;20474;-81
2022/02/05 07:01:49;;;;;;;76.60;37.72;;;10.00;99.90;;;;;;4882996;29;20047;-80
2022/02/05 07:04:15;;;;;;;74.82;38.80;;;10.00;99.90;;;;;;4881147;29;20017;-81
2022/02/05 07:06:41;;;;;;;95.13;41.67;;;10.00;99.90;;;;;;4868050;29;20043;-83
2022/02/05 07:09:06;;;;;;;77.90;42.33;;;10.00;99.90;;;;;;4898217;29;20032;-80
2022/02/05 07:11:35;;;;;;;84.43;41.85;;;10.00;99.90;;;;;;4884876;29;20064;-82
2022/02/05 07:14:03;;;;;;;85.50;43.20;;;9.90;99.90;;;;;;4879681;29;20104;-80
2022/02/05 07:16:35;;;;;;;109.40;45.03;;;9.90;99.90;;;;;;4879596;29;20041;-81
2022/02/05 07:21:37;;;;;;;100.32;43.65;;;9.90;99.90;;;;;;4879861;29;20045;-81
2022/02/05 07:29:18;;;;;;;102.68;45.08;;;10.00;99.90;;;;;;4897126;29;20610;-82
2022/02/05 07:31:57;;;;;;;79.93;42.55;;;10.00;99.90;;;;;;4879609;29;20056;-82
2022/02/05 07:34:26;;;;;;;103.65;45.83;;;10.00;99.90;;;;;;4879540;29;20169;-83
2022/02/05 07:36:58;;;;;;;88.22;42.78;;;9.90;99.90;;;;;;4893259;29;20119;-81
2022/02/05 07:39:24;;;;;;;102.22;45.15;;;9.80;99.90;;;;;;4868320;29;20029;-81
2022/02/05 07:41:50;;;;;;;96.85;44.65;;;9.80;99.90;;;;;;4879018;29;20029;-81
2022/02/05 07:44:16;;;;;;;93.85;45.50;;;9.80;99.90;;;;;;4885261;29;20496;-82
2022/02/05 07:46:45;;;;;;;95.90;48.65;;;9.70;99.90;;;;;;4895672;29;20024;-82
2022/02/05 07:49:13;;;;;;;105.75;47.67;;;9.70;99.90;;;;;;4879817;29;20427;-81
2022/02/05 07:51:39;;;;;;;100.22;48.55;;;9.60;99.90;;;;;;4878904;29;20476;-90
2022/02/05 07:54:07;;;;;;;103.13;48.40;;;9.70;99.90;;;;;;4878572;29;20104;-83
2022/02/05 07:56:33;;;;;;;98.75;48.60;;;9.60;99.90;;;;;;4878982;29;20056;-87
2022/02/05 07:58:59;;;;;;;100.32;46.67;;;9.70;99.90;;;;;;4878465;29;20608;-82
2022/02/05 08:01:24;;;;;;;106.88;47.40;;;9.60;99.90;;;;;;4878112;29;20033;-81
2022/02/05 08:03:50;;;;;;;106.05;48.17;;;9.70;99.90;;;;;;4878423;29;20021;-82
2022/02/05 08:06:17;;;;;;;92.22;48.15;;;9.70;99.90;;;;;;4878504;29;20025;-85
2022/02/05 08:08:46;;;;;;;93.72;47.53;;;9.80;99.90;;;;;;4878141;29;20104;-82
2022/02/05 08:11:16;;;;;;;121.18;47.70;;;9.80;99.90;;;;;;4877348;29;20475;-81
2022/02/05 08:13:44;;;;;;;88.65;48.70;;;9.90;99.90;;;;;;4878531;29;20031;-89
2022/02/05 08:16:45;;;;;;;95.88;47.67;;;10.00;99.90;;;;;;4878110;29;20021;-87
2022/02/05 08:18:57;;;;;;;102.95;47.38;;;10.10;99.90;;;;;;4877693;29;20060;-83
2022/02/05 08:21:23;;;;;;;86.43;47.00;;;10.20;99.90;;;;;;4877682;29;20067;-88
2022/02/05 08:23:49;;;;;;;95.00;47.25;;;10.30;99.90;;;;;;4877786;29;20037;-82
2022/02/05 08:26:15;;;;;;;106.18;46.78;;;10.40;99.90;;;;;;4877610;29;20454;-83
2022/02/05 08:28:40;;;;;;;94.35;46.97;;;10.40;99.90;;;;;;4878274;29;20053;-83
2022/02/05 08:31:06;;;;;;;102.32;47.13;;;10.50;99.90;;;;;;4877779;29;20033;-81
2022/02/05 08:33:32;;;;;;;87.10;44.63;;;10.60;99.90;;;;;;4878513;29;20436;-86
2022/02/05 08:35:58;;;;;;;92.30;44.00;;;10.70;99.90;;;;;;4882531;29;20140;-81
2022/02/05 08:38:24;;;;;;;87.90;42.92;;;10.80;99.90;;;;;;4877611;29;20407;-82
2022/02/05 08:40:50;;;;;;;80.22;43.78;;;10.80;99.90;;;;;;4878775;29;20033;-82
2022/02/05 08:43:16;;;;;;;103.05;45.15;;;10.80;99.90;;;;;;4881153;29;20475;-82
2022/02/05 08:45:42;;;;;;;86.25;43.47;;;10.80;99.90;;;;;;4880737;29;20057;-83
2022/02/05 08:48:08;;;;;;;94.07;50.33;;;10.90;99.90;;;;;;4881215;29;20033;-82
2022/02/05 08:50:33;;;;;;;99.22;40.30;;;11.00;99.90;;;;;;4841043;29;1154187;-81
2022/02/05 08:52:59;;;;;;;84.15;39.38;;;11.00;99.90;;;;;;4882471;29;20101;-82
2022/02/05 08:55:30;;;;;;;80.93;40.90;;;11.10;99.90;;;;;;4883164;29;20036;-89
2022/02/05 08:57:58;;;;;;;90.25;40.70;;;11.20;99.90;;;;;;4882518;29;20025;-90
2022/02/05 09:00:26;;;;;;;84.50;40.42;;;11.30;99.90;;;;;;4881642;29;20040;-89
2022/02/05 09:03:08;;;;;;;72.95;37.53;;;11.30;99.90;;;;;;4881888;29;20043;-88
2022/02/05 09:05:47;;;;;;;65.43;33.40;;;11.40;99.90;;;;;;4882698;29;20024;-82
2022/02/05 09:11:34;;;;;;;59.25;28.60;;;11.70;99.90;;;;;;4865394;29;20389;-91
2022/02/05 09:14:12;;;;;;;57.75;29.67;;;11.70;99.90;;;;;;4882861;29;20574;-84
2022/02/05 09:16:38;;;;;;;;;;;11.70;99.90;;;;;;4882254;29;20063;-85
2022/02/05 09:19:04;;;;;;;51.40;26.88;;;11.80;99.90;;;;;;4881940;29;19912;-83
2022/02/05 09:21:31;;;;;;;52.60;26.17;;;11.80;99.90;;;;;;4881580;29;20573;-85
2022/02/05 09:23:59;;;;;;;55.92;26.17;;;11.80;99.90;;;;;;4879180;29;20013;-82
2022/02/05 09:26:26;;;;;;;52.88;24.67;;;11.80;99.90;;;;;;4878726;29;20025;-82
2022/02/05 09:28:54;;;;;;;47.38;23.42;;;11.90;99.90;;;;;;4880228;29;20063;-82
2022/02/05 09:31:27;;;;;;;50.80;23.60;;;12.00;99.90;;;;;;4882903;29;20033;-84
2022/02/05 09:33:53;;;;;;;40.17;22.08;;;12.10;99.90;;;;;;4881733;29;20112;-79
2022/02/05 09:36:19;;;;;;;48.05;19.45;;;12.20;99.90;;;;;;4879544;29;20120;-80
2022/02/05 09:38:45;;;;;;;43.53;19.10;;;12.20;99.90;;;;;;4878230;29;20024;-80
2022/02/05 09:41:10;;;;;;;47.60;20.70;;;12.30;99.90;;;;;;4882598;29;20393;-86
2022/02/05 09:43:36;;;;;;;46.17;20.92;;;12.30;99.90;;;;;;4875027;29;20032;-87
2022/02/05 09:46:02;;;;;;;47.92;21.17;;;12.40;99.90;;;;;;4867848;29;20037;-83
2022/02/05 09:48:30;;;;;;;49.63;24.27;;;12.50;99.90;;;;;;4878948;29;20021;-85
2022/02/05 09:51:03;;;;;;;52.22;26.23;;;12.60;99.90;;;;;;4866258;29;20053;-83
2022/02/05 09:53:29;;;;;;;62.97;32.15;;;12.70;99.90;;;;;;4896805;29;20407;-82
2022/02/05 09:55:55;;;;;;;58.90;32.65;;;12.80;99.90;;;;;;4899507;29;20028;-83
2022/02/05 09:58:20;;;;;;;69.25;34.72;;;12.90;99.90;;;;;;4898812;29;20024;-84
2022/02/05 10:01:06;;;;;;;70.30;38.10;;;13.00;99.90;;;;;;4894791;29;20036;-84
2022/02/05 10:03:32;;;;;;;81.90;37.30;;;13.00;99.90;;;;;;4894080;29;20053;-85
2022/02/05 10:06:09;;;;;;;77.40;38.42;;;12.90;99.90;;;;;;4881739;29;20052;-82
2022/02/05 10:08:35;;;;;;;76.03;39.08;;;12.90;99.90;;;;;;4881565;29;20045;-85
2022/02/05 10:11:02;;;;;;;71.40;38.70;;;13.00;99.90;;;;;;4880776;29;20066;-81
2022/02/05 10:13:29;;;;;;;71.05;36.88;;;13.00;99.90;;;;;;4880637;29;20017;-80
2022/02/05 10:15:56;;;;;;;68.05;34.88;;;13.10;99.90;;;;;;4866524;29;20025;-81
2022/02/05 10:18:33;;;;;;;65.15;34.85;;;13.20;99.90;;;;;;4879979;29;20546;-81
2022/02/05 10:21:23;;;;;;;67.95;36.55;;;13.20;99.90;;;;;;4885386;29;20044;-80
2022/02/05 10:23:57;;;;;;;74.88;38.78;;;13.30;99.90;;;;;;4897981;29;20024;-79
2022/02/05 10:26:41;;;;;;;75.75;40.30;;;13.30;99.90;;;;;;4901260;29;20398;-79
2022/02/05 10:29:11;;;;;;;76.45;40.97;;;13.40;99.90;;;;;;4900204;29;20501;-80
2022/02/05 10:32:15;;;;;;;89.93;45.03;;;13.50;99.90;;;;;;4898885;29;20024;-81
2022/02/05 10:34:59;;;;;;;82.35;41.38;;;13.70;99.90;;;;;;4897750;29;20021;-82
2022/02/05 10:37:29;;;;;;;87.82;41.78;;;14.10;99.90;;;;;;4899495;29;20033;-81
2022/02/05 10:40:11;;;;;;;70.78;42.10;;;14.20;99.90;;;;;;4897662;29;20040;-81
2022/02/05 10:45:29;;;;;;;83.78;40.38;;;14.60;99.90;;;;;;4880452;29;20041;-81
2022/02/05 10:47:59;;;;;;;81.00;43.67;;;15.00;99.90;;;;;;4878551;29;20029;-82
2022/02/05 10:50:27;;;;;;;73.30;40.78;;;15.20;99.90;;;;;;4880169;29;20527;-81
2022/02/05 10:53:09;;;;;;;66.90;35.42;;;15.50;99.90;;;;;;4894747;29;20044;-80
2022/02/05 11:07:19;;;;;;;63.10;33.90;;;15.30;99.90;;;;;;4897398;29;20047;-80
2022/02/05 11:09:49;;;;;;;66.15;34.70;;;15.10;99.90;;;;;;4897152;29;20044;-83
2022/02/05 11:20:07;;;;;;;67.07;34.95;;;14.70;99.90;;;;;;4896056;29;20036;-80
2022/02/05 11:22:43;;;;;;;73.20;36.15;;;14.60;99.90;;;;;;4895665;29;20120;-83
2022/02/05 11:25:11;;;;;;;60.05;36.03;;;14.40;99.90;;;;;;4896595;29;20108;-81
2022/02/05 11:27:42;;;;;;;78.35;42.00;;;14.30;99.90;;;;;;4897986;29;20493;-81
2022/02/05 11:30:26;;;;;;;76.43;39.20;;;14.20;99.90;;;;;;4896627;29;20128;-87
2022/02/05 11:32:53;;;;;;;78.10;43.85;;;14.10;99.90;;;;;;4899111;29;20107;-87
2022/02/05 11:35:33;;;;;;;69.35;40.05;;;13.90;99.90;;;;;;4900384;29;20100;-82
2022/02/05 11:38:01;;;;;;;82.45;39.45;;;13.90;99.90;;;;;;4899106;29;20052;-82
2022/02/05 11:40:42;;;;;;;73.00;37.95;;;13.80;99.90;;;;;;4898202;29;20037;-88
2022/02/05 11:43:25;;;;;;;68.75;35.83;;;13.90;99.90;;;;;;4880674;29;20442;-79
2022/02/05 11:46:13;;;;;;;72.88;38.00;;;13.90;99.90;;;;;;4898319;29;20039;-90
2022/02/05 11:48:39;;;;;;;72.35;40.42;;;13.90;99.90;;;;;;4897936;29;20481;-87
2022/02/05 11:51:16;;;;;;;82.53;39.03;;;13.80;99.90;;;;;;4897688;29;20048;-86
2022/02/05 11:53:58;;;;;;;80.78;42.53;;;13.80;99.90;;;;;;4897354;29;20504;-87
2022/02/05 11:56:51;;;;;;;77.30;43.70;;;13.80;99.90;;;;;;4880121;29;20024;-89
2022/02/05 11:59:24;;;;;;;83.18;41.08;;;13.90;99.90;;;;;;4880941;29;20037;-90
2022/02/05 12:02:07;;;;;;;80.68;39.42;;;13.80;99.90;;;;;;4880308;29;20370;-82
2022/02/05 12:04:33;;;;;;;69.53;37.38;;;13.80;99.90;;;;;;4897456;29;20025;-83
2022/02/05 12:07:07;;;;;;;63.92;34.90;;;13.80;99.90;;;;;;4895255;29;20381;-82
2022/02/05 12:09:32;;;;;;;66.85;34.78;;;13.70;99.90;;;;;;4884915;29;20474;-82
2022/02/05 12:12:46;;;;;;;66.47;33.45;;;13.70;99.90;;;;;;4878652;29;20045;-82
2022/02/05 12:15:17;;;;;;;68.38;32.20;;;13.70;99.90;;;;;;4897260;29;20038;-82
2022/02/05 12:18:01;;;;;;;60.13;31.90;;;13.60;99.90;;;;;;4885067;29;20037;-82
2022/02/05 12:20:31;;;;;;;71.63;31.60;;;13.50;99.90;;;;;;4883503;29;20391;-79
2022/02/05 12:23:08;;;;;;;60.33;30.77;;;13.60;99.90;;;;;;4867522;29;20136;-79
2022/02/05 12:25:57;;;;;;;61.40;32.42;;;13.50;99.90;;;;;;4884090;29;20111;-80
2022/02/05 12:28:39;;;;;;;68.80;32.33;;;13.60;99.90;;;;;;4883336;29;20025;-81
2022/02/05 12:31:26;;;;;;;65.93;30.20;;;13.80;99.90;;;;;;4883536;29;20112;-83
2022/02/05 12:34:15;;;;;;;55.38;27.95;;;13.90;99.90;;;;;;4883598;29;20126;-80
2022/02/05 12:36:43;;;;;;;59.53;30.45;;;13.90;99.90;;;;;;4876337;29;20402;-80
2022/02/05 12:39:17;;;;;;;77.70;30.95;;;13.80;99.90;;;;;;4890011;29;20021;-82
2022/02/05 12:41:56;;;;;;;64.97;29.17;;;13.70;99.90;;;;;;4883575;29;20045;-82
2022/02/05 12:44:24;;;;;;;68.78;29.58;;;13.60;99.90;;;;;;4883436;29;20027;-82
2022/02/05 12:46:55;;;;;;;58.10;27.95;;;13.50;99.90;;;;;;4883780;29;20041;-84
2022/02/05 12:49:34;;;;;;;67.30;31.08;;;13.40;99.90;;;;;;4895336;29;20409;-83
2022/02/05 12:52:01;;;;;;;70.88;30.48;;;13.40;99.90;;;;;;4902379;29;20575;-80
2022/02/05 12:54:29;;;;;;;57.85;27.80;;;13.30;99.90;;;;;;4901542;29;20020;-81
2022/02/05 12:56:57;;;;;;;74.10;27.83;;;13.20;99.90;;;;;;4901874;29;20029;-83
2022/02/05 12:59:30;;;;;;;69.13;28.40;;;13.10;99.90;;;;;;4902919;29;20025;-83
2022/02/05 13:02:03;;;;;;;48.28;27.10;;;12.90;99.90;;;;;;4902768;29;20482;-84
2022/02/05 13:04:36;;;;;;;61.28;23.77;;;12.80;99.90;;;;;;4902947;29;20096;-82
2022/02/05 13:07:12;;;;;;;44.88;21.77;;;12.70;99.90;;;;;;4883856;29;20037;-85
2022/02/05 13:09:55;;;;;;;52.13;22.35;;;12.70;99.90;;;;;;4889892;29;20032;-83
2022/02/05 13:12:26;;;;;;;45.75;22.05;;;12.70;99.90;;;;;;4902368;29;20031;-81
2022/02/05 13:15:04;;;;;;;53.90;22.20;;;12.70;99.90;;;;;;4892265;29;20060;-79
2022/02/05 13:25:52;;;;;;;41.05;18.73;;;12.80;99.90;;;;;;4884015;29;20044;-83
2022/02/05 13:33:37;;;;;;;43.30;13.90;;;12.90;99.90;;;;;;4880471;29;20025;-81
2022/02/05 13:38:58;;;;;;;47.58;17.33;;;13.00;99.90;;;;;;4880775;29;20036;-81
2022/02/05 13:41:40;;;;;;;35.65;13.93;;;13.10;99.90;;;;;;4880002;29;20068;-80
2022/02/05 13:44:13;;;;;;;51.80;14.90;;;13.20;99.90;;;;;;4880290;29;20439;-81
2022/02/05 13:46:38;;;;;;;42.22;15.15;;;13.20;99.90;;;;;;4880528;29;20089;-81
2022/02/05 13:49:19;;;;;;;30.85;14.05;;;13.30;99.90;;;;;;4880249;29;20033;-82
2022/02/05 13:51:45;;;;;;;33.47;14.82;;;13.20;99.90;;;;;;4880259;29;20535;-82
2022/02/05 13:54:11;;;;;;;39.50;15.63;;;13.20;99.90;;;;;;4863836;29;20063;-83
2022/02/05 13:56:37;;;;;;;55.67;20.23;;;13.20;99.90;;;;;;4882949;29;20126;-83
2022/02/05 13:59:04;;;;;;;53.83;22.40;;;13.20;99.90;;;;;;4880616;29;20017;-81
2022/02/05 14:01:35;;;;;;;68.45;26.45;;;13.20;99.90;;;;;;4880476;29;20093;-81
2022/02/05 14:04:23;;;;;;;52.03;18.35;;;13.10;99.90;;;;;;4880564;29;20054;-84
2022/02/05 14:06:59;;;;;;;49.78;18.10;;;13.00;99.90;;;;;;4880237;29;20044;-82
2022/02/05 14:09:30;;;;;;;38.47;17.08;;;13.00;99.90;;;;;;4880338;29;20022;-82
2022/02/05 14:11:59;;;;;;;38.92;16.15;;;12.90;99.90;;;;;;4880073;29;20033;-80
2022/02/05 14:14:31;;;;;;;33.47;13.75;;;12.90;99.90;;;;;;4880134;29;20029;-81
2022/02/05 14:16:57;;;;;;;52.63;14.80;;;12.90;99.90;;;;;;4879833;29;20027;-80
2022/02/05 14:19:26;;;;;;;32.42;14.80;;;12.90;99.90;;;;;;4879873;29;20033;-83
2022/02/05 14:21:53;;;;;;;48.10;16.80;;;12.90;99.90;;;;;;4880891;29;20423;-82
2022/02/05 14:24:28;;;;;;;41.63;18.20;;;12.80;99.90;;;;;;4877422;29;20037;-82
2022/02/05 14:27:09;;;;;;;33.40;17.13;;;12.80;99.90;;;;;;4878951;29;20044;-81
2022/02/05 14:29:44;;;;;;;44.10;18.75;;;12.80;99.90;;;;;;4879431;29;20021;-82
2022/02/05 14:32:21;;;;;;;49.35;19.15;;;12.80;99.90;;;;;;4882455;29;20032;-82
2022/02/05 14:35:12;;;;;;;34.53;17.08;;;12.70;99.90;;;;;;4897379;29;20481;-83
2022/02/05 14:40:39;;;;;;;49.78;20.08;;;12.70;99.90;;;;;;4897240;29;20039;-80
2022/02/05 14:43:05;;;;;;;48.17;20.85;;;12.70;99.90;;;;;;4897449;29;20032;-84
2022/02/05 14:45:32;;;;;;;41.50;20.05;;;12.80;99.90;;;;;;4897589;29;20393;-82
2022/02/05 14:47:58;;;;;;;45.38;19.67;;;12.80;99.90;;;;;;4897025;29;20107;-83
2022/02/05 14:50:23;;;;;;;51.67;21.70;;;12.90;99.90;;;;;;4897393;29;20359;-85
2022/02/05 14:52:49;;;;;;;52.42;18.52;;;12.80;99.90;;;;;;4897269;29;20052;-87
2022/02/05 14:55:15;;;;;;;59.47;18.83;;;12.90;99.90;;;;;;4898376;29;20030;-82
2022/02/05 14:57:40;;;;;;;40.55;18.52;;;12.80;99.90;;;;;;4897869;29;20041;-85
2022/02/05 15:00:07;;;;;;;39.00;17.67;;;12.80;99.90;;;;;;4897519;29;20033;-83
2022/02/05 15:02:33;;;;;;;48.97;18.15;;;12.80;99.90;;;;;;4897824;29;20025;-85
2022/02/05 15:04:58;;;;;;;40.20;16.30;;;12.80;99.90;;;;;;4898137;29;20021;-86
2022/02/05 15:07:24;;;;;;;33.25;13.13;;;12.80;99.90;;;;;;4892601;29;20107;-83
2022/02/05 15:09:50;;;;;;;43.92;14.88;;;12.90;99.90;;;;;;4896200;29;20064;-83
2022/02/05 15:12:16;;;;;;;35.50;14.57;;;12.90;99.90;;;;;;4895894;29;20164;-85
2022/02/05 15:14:41;;;;;;;33.03;13.98;;;12.90;99.90;;;;;;4897093;29;20092;-85
2022/02/05 15:17:07;;;;;;;32.20;15.65;;;12.90;99.90;;;;;;4896743;29;20109;-85
2022/02/05 15:19:33;;;;;;;38.85;16.27;;;12.90;99.90;;;;;;4895053;29;20039;-84
2022/02/05 15:21:58;;;;;;;35.72;16.55;;;12.90;99.90;;;;;;4897124;29;20035;-80
2022/02/05 15:24:24;;;;;;;33.83;14.65;;;12.90;99.90;;;;;;4897076;29;20033;-83
2022/02/05 15:26:50;;;;;;;39.22;16.02;;;12.80;99.90;;;;;;4895166;29;20036;-85
2022/02/05 15:29:16;;;;;;;47.05;19.02;;;12.90;99.90;;;;;;4897362;29;20517;-85
2022/02/05 15:31:43;;;;;;;54.67;21.60;;;12.90;99.90;;;;;;4897366;29;20071;-85
2022/02/05 15:34:09;;;;;;;40.05;22.17;;;12.80;99.90;;;;;;4897317;29;20504;-85
2022/02/05 15:39:50;;;;;;;36.05;17.77;;;12.80;99.90;;;;;;4897145;29;20093;-83
2022/02/05 15:45:02;;;;;;;42.90;19.25;;;12.70;99.90;;;;;;4897231;29;20402;-82